Terminal Aerodrome Forecast
Issued by NWS

Home | Current Version | Previous Version | Text Only | Print | Product List | Glossary On
Versions: 1 2 3 4 5 6 7 8 9 10 11 12 13 14 15 16 17 18 19 20 21 22 23 24 25
000
FTUS45 KSLC 171724
TAFOGD
TAF
KOGD 171724Z 1718/1818 17007KT P6SM SKC
     FM172100 26006KT P6SM SCT120
     FM180200 17010KT P6SM FEW120
     FM181500 18012G17KT P6SM SCT100=

USA.gov is the U.S. government's official web portal to all federal, state and local government web resources and services.